Date,TemperatureHighF,TemperatureAvgF,TemperatureLowF,DewpointHighF,DewpointAvgF,DewpointLowF,HumidityHigh,HumidityAvg,HumidityLow,PressureMaxIn,PressureMinIn,WindSpeedMaxMPH,WindSpeedAvgMPH,GustSpeedMaxMPH,PrecipitationSumIn
2013-3-1,33,26,23,28,23,20,98,86,72,29.94,29.87,14,1,16,0.00
2013-3-2,28,24,18,24,21,15,94,87,79,29.91,29.83,16,1,16,0.02
2013-3-3,31,20,14,19,14,10,88,76,58,30.02,29.89,19,2,20,0.03
2013-3-4,47,32,16,29,16,6,79,54,23,30.17,30.00,18,1,19,0.00
2013-3-5,46,40,25,46,37,21,97,88,59,30.07,29.60,41,4,46,0.72
2013-3-6,26,22,17,22,19,15,95,90,84,30.16,29.58,47,6,47,0.09
2013-3-7,53,34,20,34,24,18,94,71,40,30.25,30.14,12,0,13,0.01
2013-3-8,57,43,31,23,9,-7,63,26,15,30.22,30.15,17,1,20,0.00
2013-3-9,60,46,37,31,24,9,60,44,26,30.21,30.12,12,0,12,0.00
2013-3-10,57,46,40,34,29,26,65,52,36,30.17,30.07,14,2,18,0.00
2013-3-11,48,45,43,47,43,34,98,95,65,30.08,29.74,31,4,31,1.30
2013-3-12,51,43,34,47,36,22,98,78,40,29.94,29.69,25,2,25,0.63
2013-3-13,36,30,21,27,20,14,78,68,51,30.11,29.92,33,6,36,0.00
2013-3-14,43,28,16,16,11,3,83,53,27,30.30,30.10,31,3,31,0.00
2013-3-15,59,45,30,40,32,16,84,61,38,30.19,29.91,27,5,30,0.00
2013-3-16,65,55,50,45,41,38,67,60,45,29.92,29.72,36,6,36,0.00
2013-3-17,62,54,48,46,43,39,85,67,44,29.86,29.77,24,2,24,0.00
2013-3-18,48,44,40,45,43,39,100,95,85,29.87,29.75,24,1,24,0.55
2013-3-19,49,41,33,43,26,9,96,60,30,30.00,29.78,33,5,33,0.02
2013-3-20,45,34,26,25,10,2,91,39,24,30.04,29.81,26,2,30,0.00
2013-3-21,31,23,15,22,9,0,88,56,41,29.95,29.70,32,4,40,0.00
2013-3-22,38,30,20,31,16,4,81,58,32,30.04,29.94,16,1,16,0.00
2013-3-23,57,42,34,50,39,30,97,90,73,30.02,29.77,14,0,14,0.10
2013-3-24,45,40,33,43,38,32,97,96,90,29.83,29.41,39,0,39,0.78
2013-3-25,34,23,20,32,20,17,93,86,78,29.91,29.44,43,10,43,0.07
2013-3-26,28,23,19,22,19,16,92,85,76,30.21,29.90,32,4,32,0.00
2013-3-27,41,28,20,25,18,15,86,68,39,30.28,30.17,17,2,19,0.01
2013-3-28,46,34,24,21,16,6,77,53,21,30.27,30.20,23,2,23,0.00
2013-3-29,43,36,30,35,24,9,94,64,30,30.29,30.19,20,2,23,0.11
2013-3-30,56,44,36,41,37,33,96,78,43,30.20,29.99,12,0,12,0.11
2013-3-31,54,48,43,48,45,40,96,90,77,29.99,29.77,23,2,25,0.40